Thedford, Canada
Current Conditions -  °F | °C
As of 7:31 AM on Monday 20 Oct 2014 (Local Time) from CYZR Reporting Station
Light Rain Light Rain  
Wind Chill: 42°   Ceiling: 4100
Heat Index: 46°   Visibility: 6mi
Dew Point: 45°   Wind: 9mph
Humidity: 93%   Direction: 200°SSW
Pressure: 29.85"   Gusts: NA
Location:  43.17°N, 81.85°W
Report Text: CYZR 201131Z AUTO 20008KT 6SM -RA BR OVC041 08/07 A2985 RMK SLP112
Loading
Personal Weather Stations






























Interactive Weather Map New forecast layout! Learn more

10-Day Weather Forecast

Advertisements
Track Severe Weather on mobile